sensor_id;sensor_type;location;lat;lon;timestamp;P1;durP1;ratioP1;P2;durP2;ratioP2
7383;SDS011;3733;47.994;8.820;2023-02-28T00:00:28;10.50;;;6.23;;
7383;SDS011;3733;47.994;8.820;2023-02-28T00:02:53;6.67;;;5.60;;
7383;SDS011;3733;47.994;8.820;2023-02-28T00:05:21;8.03;;;6.00;;
7383;SDS011;3733;47.994;8.820;2023-02-28T00:07:48;8.43;;;6.00;;
7383;SDS011;3733;47.994;8.820;2023-02-28T00:10:15;10.20;;;6.97;;
7383;SDS011;3733;47.994;8.820;2023-02-28T00:12:45;9.27;;;6.60;;
7383;SDS011;3733;47.994;8.820;2023-02-28T00:15:24;9.77;;;5.97;;
7383;SDS011;3733;47.994;8.820;2023-02-28T00:17:50;10.27;;;6.50;;
7383;SDS011;3733;47.994;8.820;2023-02-28T00:20:16;8.50;;;6.90;;
7383;SDS011;3733;47.994;8.820;2023-02-28T00:22:43;15.00;;;7.87;;
7383;SDS011;3733;47.994;8.820;2023-02-28T00:25:13;10.80;;;6.60;;
7383;SDS011;3733;47.994;8.820;2023-02-28T00:27:41;10.40;;;6.17;;
7383;SDS011;3733;47.994;8.820;2023-02-28T00:30:09;8.80;;;5.97;;
7383;SDS011;3733;47.994;8.820;2023-02-28T00:32:37;12.13;;;6.03;;
7383;SDS011;3733;47.994;8.820;2023-02-28T00:35:03;9.53;;;5.80;;
7383;SDS011;3733;47.994;8.820;2023-02-28T00:37:29;8.23;;;5.77;;
7383;SDS011;3733;47.994;8.820;2023-02-28T00:39:55;9.27;;;6.80;;
7383;SDS011;3733;47.994;8.820;2023-02-28T00:42:21;6.77;;;5.50;;
7383;SDS011;3733;47.994;8.820;2023-02-28T00:44:47;7.40;;;5.87;;
7383;SDS011;3733;47.994;8.820;2023-02-28T00:47:12;7.57;;;5.43;;
7383;SDS011;3733;47.994;8.820;2023-02-28T00:49:38;10.40;;;6.93;;
7383;SDS011;3733;47.994;8.820;2023-02-28T00:52:03;10.70;;;7.47;;
7383;SDS011;3733;47.994;8.820;2023-02-28T00:54:29;8.70;;;5.57;;
7383;SDS011;3733;47.994;8.820;2023-02-28T00:56:55;8.53;;;6.23;;
7383;SDS011;3733;47.994;8.820;2023-02-28T00:59:20;7.90;;;5.83;;
7383;SDS011;3733;47.994;8.820;2023-02-28T01:01:46;9.30;;;6.83;;
7383;SDS011;3733;47.994;8.820;2023-02-28T01:04:12;10.83;;;6.70;;
7383;SDS011;3733;47.994;8.820;2023-02-28T01:06:38;10.03;;;6.50;;
7383;SDS011;3733;47.994;8.820;2023-02-28T01:09:05;9.63;;;6.50;;
7383;SDS011;3733;47.994;8.820;2023-02-28T01:11:31;7.50;;;5.70;;
7383;SDS011;3733;47.994;8.820;2023-02-28T01:13:57;7.83;;;6.33;;
7383;SDS011;3733;47.994;8.820;2023-02-28T01:16:23;9.00;;;6.73;;
7383;SDS011;3733;47.994;8.820;2023-02-28T01:18:49;9.50;;;6.33;;
7383;SDS011;3733;47.994;8.820;2023-02-28T01:21:15;8.13;;;6.27;;
7383;SDS011;3733;47.994;8.820;2023-02-28T01:23:42;14.20;;;6.50;;
7383;SDS011;3733;47.994;8.820;2023-02-28T01:26:18;9.17;;;6.27;;
7383;SDS011;3733;47.994;8.820;2023-02-28T01:28:46;10.20;;;6.20;;
7383;SDS011;3733;47.994;8.820;2023-02-28T01:31:12;8.27;;;6.30;;
7383;SDS011;3733;47.994;8.820;2023-02-28T01:33:38;9.07;;;6.00;;
7383;SDS011;3733;47.994;8.820;2023-02-28T01:38:35;7.43;;;6.30;;
7383;SDS011;3733;47.994;8.820;2023-02-28T01:41:01;10.97;;;6.40;;
7383;SDS011;3733;47.994;8.820;2023-02-28T01:45:54;10.50;;;7.17;;
7383;SDS011;3733;47.994;8.820;2023-02-28T01:48:22;8.80;;;6.90;;
7383;SDS011;3733;47.994;8.820;2023-02-28T01:50:52;9.73;;;6.40;;
7383;SDS011;3733;47.994;8.820;2023-02-28T01:53:23;8.80;;;6.23;;
7383;SDS011;3733;47.994;8.820;2023-02-28T01:55:55;13.23;;;6.30;;
7383;SDS011;3733;47.994;8.820;2023-02-28T01:58:21;9.40;;;6.60;;
7383;SDS011;3733;47.994;8.820;2023-02-28T02:00:47;11.93;;;7.00;;
7383;SDS011;3733;47.994;8.820;2023-02-28T02:03:14;10.73;;;7.27;;
7383;SDS011;3733;47.994;8.820;2023-02-28T02:05:44;8.50;;;6.70;;
7383;SDS011;3733;47.994;8.820;2023-02-28T02:08:13;9.10;;;6.90;;
7383;SDS011;3733;47.994;8.820;2023-02-28T02:35:14;12.53;;;6.10;;
7383;SDS011;3733;47.994;8.820;2023-02-28T02:40:19;8.70;;;6.70;;
7383;SDS011;3733;47.994;8.820;2023-02-28T02:45:27;9.03;;;6.10;;
7383;SDS011;3733;47.994;8.820;2023-02-28T02:48:02;11.23;;;6.90;;
7383;SDS011;3733;47.994;8.820;2023-02-28T02:50:34;9.00;;;7.00;;
7383;SDS011;3733;47.994;8.820;2023-02-28T02:53:05;11.90;;;6.90;;
7383;SDS011;3733;47.994;8.820;2023-02-28T02:55:35;10.00;;;6.67;;
7383;SDS011;3733;47.994;8.820;2023-02-28T02:58:04;9.33;;;6.50;;
7383;SDS011;3733;47.994;8.820;2023-02-28T03:00:34;9.60;;;6.67;;
7383;SDS011;3733;47.994;8.820;2023-02-28T03:03:04;10.80;;;6.60;;
7383;SDS011;3733;47.994;8.820;2023-02-28T03:05:42;9.60;;;6.53;;
7383;SDS011;3733;47.994;8.820;2023-02-28T03:08:11;9.97;;;7.23;;
7383;SDS011;3733;47.994;8.820;2023-02-28T03:10:39;10.47;;;7.10;;
7383;SDS011;3733;47.994;8.820;2023-02-28T03:15:37;9.70;;;6.80;;
7383;SDS011;3733;47.994;8.820;2023-02-28T03:26:42;9.37;;;6.83;;
7383;SDS011;3733;47.994;8.820;2023-02-28T03:34:39;10.67;;;6.90;;
7383;SDS011;3733;47.994;8.820;2023-02-28T03:37:16;9.70;;;6.83;;
7383;SDS011;3733;47.994;8.820;2023-02-28T03:39:47;12.97;;;8.40;;
7383;SDS011;3733;47.994;8.820;2023-02-28T03:42:19;13.63;;;6.93;;
7383;SDS011;3733;47.994;8.820;2023-02-28T03:44:49;8.50;;;6.43;;
7383;SDS011;3733;47.994;8.820;2023-02-28T03:52:17;9.67;;;7.13;;
7383;SDS011;3733;47.994;8.820;2023-02-28T03:54:47;7.27;;;5.87;;
7383;SDS011;3733;47.994;8.820;2023-02-28T04:00:19;10.67;;;6.80;;
7383;SDS011;3733;47.994;8.820;2023-02-28T04:02:50;12.83;;;7.07;;
7383;SDS011;3733;47.994;8.820;2023-02-28T04:05:18;12.10;;;7.20;;
7383;SDS011;3733;47.994;8.820;2023-02-28T04:07:47;11.33;;;7.10;;
7383;SDS011;3733;47.994;8.820;2023-02-28T04:10:13;14.70;;;8.47;;
7383;SDS011;3733;47.994;8.820;2023-02-28T04:12:40;10.07;;;6.10;;
7383;SDS011;3733;47.994;8.820;2023-02-28T04:15:06;9.13;;;5.93;;
7383;SDS011;3733;47.994;8.820;2023-02-28T04:17:32;9.90;;;7.37;;
7383;SDS011;3733;47.994;8.820;2023-02-28T04:19:57;10.70;;;6.97;;
7383;SDS011;3733;47.994;8.820;2023-02-28T04:22:23;10.20;;;7.53;;
7383;SDS011;3733;47.994;8.820;2023-02-28T04:24:51;9.77;;;6.77;;
7383;SDS011;3733;47.994;8.820;2023-02-28T04:27:19;12.00;;;7.90;;
7383;SDS011;3733;47.994;8.820;2023-02-28T04:29:45;10.97;;;7.27;;
7383;SDS011;3733;47.994;8.820;2023-02-28T04:32:11;14.03;;;8.00;;
7383;SDS011;3733;47.994;8.820;2023-02-28T04:34:36;10.67;;;7.53;;
7383;SDS011;3733;47.994;8.820;2023-02-28T04:37:02;11.67;;;7.60;;
7383;SDS011;3733;47.994;8.820;2023-02-28T04:39:28;8.57;;;6.43;;
7383;SDS011;3733;47.994;8.820;2023-02-28T04:41:54;15.77;;;7.07;;
7383;SDS011;3733;47.994;8.820;2023-02-28T04:44:20;10.60;;;7.50;;
7383;SDS011;3733;47.994;8.820;2023-02-28T04:46:47;11.67;;;7.80;;
7383;SDS011;3733;47.994;8.820;2023-02-28T04:49:13;14.77;;;8.30;;
7383;SDS011;3733;47.994;8.820;2023-02-28T04:51:40;11.50;;;7.40;;
7383;SDS011;3733;47.994;8.820;2023-02-28T04:54:06;12.30;;;7.40;;
7383;SDS011;3733;47.994;8.820;2023-02-28T04:56:32;12.07;;;7.63;;
7383;SDS011;3733;47.994;8.820;2023-02-28T04:58:58;13.97;;;7.50;;
7383;SDS011;3733;47.994;8.820;2023-02-28T05:03:49;12.90;;;8.27;;
7383;SDS011;3733;47.994;8.820;2023-02-28T05:06:16;12.33;;;8.13;;
7383;SDS011;3733;47.994;8.820;2023-02-28T05:08:43;12.60;;;8.37;;
7383;SDS011;3733;47.994;8.820;2023-02-28T05:11:13;12.37;;;8.37;;
7383;SDS011;3733;47.994;8.820;2023-02-28T05:13:41;12.33;;;7.90;;
7383;SDS011;3733;47.994;8.820;2023-02-28T05:16:07;15.03;;;7.03;;
7383;SDS011;3733;47.994;8.820;2023-02-28T05:18:32;10.27;;;7.80;;
7383;SDS011;3733;47.994;8.820;2023-02-28T05:20:59;11.53;;;8.53;;
7383;SDS011;3733;47.994;8.820;2023-02-28T05:23:27;11.77;;;7.93;;
7383;SDS011;3733;47.994;8.820;2023-02-28T05:25:52;12.63;;;7.70;;
7383;SDS011;3733;47.994;8.820;2023-02-28T05:28:19;11.60;;;8.20;;
7383;SDS011;3733;47.994;8.820;2023-02-28T05:30:45;12.23;;;7.67;;
7383;SDS011;3733;47.994;8.820;2023-02-28T05:33:11;10.63;;;7.10;;
7383;SDS011;3733;47.994;8.820;2023-02-28T05:35:38;10.57;;;7.40;;
7383;SDS011;3733;47.994;8.820;2023-02-28T05:38:05;10.60;;;7.60;;
7383;SDS011;3733;47.994;8.820;2023-02-28T05:40:31;11.23;;;7.83;;
7383;SDS011;3733;47.994;8.820;2023-02-28T05:42:56;12.07;;;8.20;;
7383;SDS011;3733;47.994;8.820;2023-02-28T05:45:22;15.37;;;8.43;;
7383;SDS011;3733;47.994;8.820;2023-02-28T05:47:48;11.77;;;8.30;;
7383;SDS011;3733;47.994;8.820;2023-02-28T05:50:13;21.97;;;7.70;;
7383;SDS011;3733;47.994;8.820;2023-02-28T05:52:39;11.93;;;8.23;;
7383;SDS011;3733;47.994;8.820;2023-02-28T05:55:05;14.07;;;8.40;;
7383;SDS011;3733;47.994;8.820;2023-02-28T05:57:31;12.40;;;8.23;;
7383;SDS011;3733;47.994;8.820;2023-02-28T05:59:57;11.03;;;7.80;;
7383;SDS011;3733;47.994;8.820;2023-02-28T06:02:22;16.10;;;8.70;;
7383;SDS011;3733;47.994;8.820;2023-02-28T06:04:48;13.60;;;8.57;;
7383;SDS011;3733;47.994;8.820;2023-02-28T06:07:14;10.40;;;7.80;;
7383;SDS011;3733;47.994;8.820;2023-02-28T06:09:40;13.40;;;8.10;;
7383;SDS011;3733;47.994;8.820;2023-02-28T06:12:05;13.60;;;7.90;;
7383;SDS011;3733;47.994;8.820;2023-02-28T06:14:33;10.23;;;7.93;;
7383;SDS011;3733;47.994;8.820;2023-02-28T06:17:00;11.83;;;7.57;;
7383;SDS011;3733;47.994;8.820;2023-02-28T06:19:26;11.97;;;8.30;;
7383;SDS011;3733;47.994;8.820;2023-02-28T06:21:53;11.20;;;7.97;;
7383;SDS011;3733;47.994;8.820;2023-02-28T06:24:20;13.80;;;8.10;;
7383;SDS011;3733;47.994;8.820;2023-02-28T06:26:46;15.73;;;9.10;;
7383;SDS011;3733;47.994;8.820;2023-02-28T06:29:12;15.80;;;7.90;;
7383;SDS011;3733;47.994;8.820;2023-02-28T06:31:42;12.33;;;7.77;;
7383;SDS011;3733;47.994;8.820;2023-02-28T06:34:09;16.60;;;8.50;;
7383;SDS011;3733;47.994;8.820;2023-02-28T06:36:36;13.17;;;7.77;;
7383;SDS011;3733;47.994;8.820;2023-02-28T06:39:02;13.97;;;8.30;;
7383;SDS011;3733;47.994;8.820;2023-02-28T06:41:28;17.20;;;9.17;;
7383;SDS011;3733;47.994;8.820;2023-02-28T06:43:54;16.13;;;9.93;;
7383;SDS011;3733;47.994;8.820;2023-02-28T06:46:20;14.57;;;8.70;;
7383;SDS011;3733;47.994;8.820;2023-02-28T06:48:45;11.40;;;7.60;;
7383;SDS011;3733;47.994;8.820;2023-02-28T06:51:13;13.30;;;9.00;;
7383;SDS011;3733;47.994;8.820;2023-02-28T06:53:41;14.80;;;8.50;;
7383;SDS011;3733;47.994;8.820;2023-02-28T06:56:08;13.90;;;9.07;;
7383;SDS011;3733;47.994;8.820;2023-02-28T06:58:35;13.50;;;8.23;;
7383;SDS011;3733;47.994;8.820;2023-02-28T07:01:02;13.90;;;8.20;;
7383;SDS011;3733;47.994;8.820;2023-02-28T07:03:28;11.40;;;8.27;;
7383;SDS011;3733;47.994;8.820;2023-02-28T07:05:54;11.97;;;8.70;;
7383;SDS011;3733;47.994;8.820;2023-02-28T07:08:21;15.30;;;8.90;;
7383;SDS011;3733;47.994;8.820;2023-02-28T07:10:51;12.13;;;8.30;;
7383;SDS011;3733;47.994;8.820;2023-02-28T07:13:20;14.43;;;8.23;;
7383;SDS011;3733;47.994;8.820;2023-02-28T07:15:52;11.73;;;8.17;;
7383;SDS011;3733;47.994;8.820;2023-02-28T07:18:28;13.83;;;9.07;;
7383;SDS011;3733;47.994;8.820;2023-02-28T07:20:54;13.00;;;8.83;;
7383;SDS011;3733;47.994;8.820;2023-02-28T07:23:20;13.60;;;8.17;;
7383;SDS011;3733;47.994;8.820;2023-02-28T07:25:46;12.43;;;8.10;;
7383;SDS011;3733;47.994;8.820;2023-02-28T07:28:12;12.20;;;8.30;;
7383;SDS011;3733;47.994;8.820;2023-02-28T07:30:39;13.63;;;7.57;;
7383;SDS011;3733;47.994;8.820;2023-02-28T07:33:05;12.70;;;8.03;;
7383;SDS011;3733;47.994;8.820;2023-02-28T07:35:31;12.90;;;8.77;;
7383;SDS011;3733;47.994;8.820;2023-02-28T07:37:57;17.50;;;8.77;;
7383;SDS011;3733;47.994;8.820;2023-02-28T07:40:23;12.90;;;8.57;;
7383;SDS011;3733;47.994;8.820;2023-02-28T07:42:49;12.47;;;7.93;;
7383;SDS011;3733;47.994;8.820;2023-02-28T07:45:15;13.73;;;8.40;;
7383;SDS011;3733;47.994;8.820;2023-02-28T07:47:42;12.53;;;8.90;;
7383;SDS011;3733;47.994;8.820;2023-02-28T07:50:09;15.10;;;8.57;;
7383;SDS011;3733;47.994;8.820;2023-02-28T07:52:36;16.20;;;9.17;;
7383;SDS011;3733;47.994;8.820;2023-02-28T07:55:03;15.27;;;8.70;;
7383;SDS011;3733;47.994;8.820;2023-02-28T07:57:30;13.07;;;8.20;;
7383;SDS011;3733;47.994;8.820;2023-02-28T07:59:56;17.60;;;9.30;;
7383;SDS011;3733;47.994;8.820;2023-02-28T08:02:21;19.07;;;9.00;;
7383;SDS011;3733;47.994;8.820;2023-02-28T08:04:47;14.47;;;8.60;;
7383;SDS011;3733;47.994;8.820;2023-02-28T08:07:13;14.53;;;9.30;;
7383;SDS011;3733;47.994;8.820;2023-02-28T08:09:40;11.33;;;8.40;;
7383;SDS011;3733;47.994;8.820;2023-02-28T08:12:06;16.20;;;8.90;;
7383;SDS011;3733;47.994;8.820;2023-02-28T08:14:33;16.00;;;9.20;;
7383;SDS011;3733;47.994;8.820;2023-02-28T08:16:59;16.40;;;9.90;;
7383;SDS011;3733;47.994;8.820;2023-02-28T08:19:25;12.13;;;8.47;;
7383;SDS011;3733;47.994;8.820;2023-02-28T08:21:51;17.10;;;9.40;;
7383;SDS011;3733;47.994;8.820;2023-02-28T08:24:17;15.90;;;8.20;;
7383;SDS011;3733;47.994;8.820;2023-02-28T08:26:42;17.30;;;9.00;;
7383;SDS011;3733;47.994;8.820;2023-02-28T08:29:08;15.03;;;8.97;;
7383;SDS011;3733;47.994;8.820;2023-02-28T08:31:33;17.00;;;9.43;;
7383;SDS011;3733;47.994;8.820;2023-02-28T08:34:04;14.07;;;9.47;;
7383;SDS011;3733;47.994;8.820;2023-02-28T08:36:33;16.73;;;9.40;;
7383;SDS011;3733;47.994;8.820;2023-02-28T08:38:59;14.80;;;9.30;;
7383;SDS011;3733;47.994;8.820;2023-02-28T08:41:25;15.30;;;9.90;;
7383;SDS011;3733;47.994;8.820;2023-02-28T08:43:51;15.37;;;9.20;;
7383;SDS011;3733;47.994;8.820;2023-02-28T08:46:18;15.27;;;9.57;;
7383;SDS011;3733;47.994;8.820;2023-02-28T08:48:44;20.53;;;11.60;;
7383;SDS011;3733;47.994;8.820;2023-02-28T08:51:11;24.63;;;13.13;;
7383;SDS011;3733;47.994;8.820;2023-02-28T08:53:43;20.70;;;10.77;;
7383;SDS011;3733;47.994;8.820;2023-02-28T08:56:11;38.60;;;16.10;;
7383;SDS011;3733;47.994;8.820;2023-02-28T08:58:38;18.07;;;10.73;;
7383;SDS011;3733;47.994;8.820;2023-02-28T09:01:07;18.43;;;9.90;;
7383;SDS011;3733;47.994;8.820;2023-02-28T09:03:52;20.23;;;10.30;;
7383;SDS011;3733;47.994;8.820;2023-02-28T09:06:19;20.10;;;10.07;;
7383;SDS011;3733;47.994;8.820;2023-02-28T09:08:45;15.07;;;9.97;;
7383;SDS011;3733;47.994;8.820;2023-02-28T09:11:11;18.17;;;9.93;;
7383;SDS011;3733;47.994;8.820;2023-02-28T09:13:37;16.73;;;10.30;;
7383;SDS011;3733;47.994;8.820;2023-02-28T09:16:05;15.70;;;10.90;;
7383;SDS011;3733;47.994;8.820;2023-02-28T09:18:33;18.47;;;9.70;;
7383;SDS011;3733;47.994;8.820;2023-02-28T09:21:02;18.27;;;10.30;;
7383;SDS011;3733;47.994;8.820;2023-02-28T09:23:32;16.97;;;10.43;;
7383;SDS011;3733;47.994;8.820;2023-02-28T09:25:57;18.67;;;10.20;;
7383;SDS011;3733;47.994;8.820;2023-02-28T09:28:23;17.80;;;10.50;;
7383;SDS011;3733;47.994;8.820;2023-02-28T09:30:50;13.97;;;9.57;;
7383;SDS011;3733;47.994;8.820;2023-02-28T09:33:18;18.50;;;11.03;;
7383;SDS011;3733;47.994;8.820;2023-02-28T09:35:46;17.40;;;10.43;;
7383;SDS011;3733;47.994;8.820;2023-02-28T09:38:12;17.30;;;9.83;;
7383;SDS011;3733;47.994;8.820;2023-02-28T09:40:41;20.30;;;11.30;;
7383;SDS011;3733;47.994;8.820;2023-02-28T09:43:10;17.20;;;10.80;;
7383;SDS011;3733;47.994;8.820;2023-02-28T09:45:40;19.20;;;10.23;;
7383;SDS011;3733;47.994;8.820;2023-02-28T09:48:12;19.27;;;10.97;;
7383;SDS011;3733;47.994;8.820;2023-02-28T09:50:52;19.87;;;10.30;;
7383;SDS011;3733;47.994;8.820;2023-02-28T09:53:26;17.07;;;10.67;;
7383;SDS011;3733;47.994;8.820;2023-02-28T09:56:04;19.07;;;9.83;;
7383;SDS011;3733;47.994;8.820;2023-02-28T09:58:55;15.67;;;10.13;;
7383;SDS011;3733;47.994;8.820;2023-02-28T10:01:46;15.97;;;9.90;;
7383;SDS011;3733;47.994;8.820;2023-02-28T10:04:36;22.73;;;11.87;;
7383;SDS011;3733;47.994;8.820;2023-02-28T10:07:26;15.20;;;9.80;;
7383;SDS011;3733;47.994;8.820;2023-02-28T10:10:05;18.83;;;10.93;;
7383;SDS011;3733;47.994;8.820;2023-02-28T10:12:40;16.70;;;10.20;;
7383;SDS011;3733;47.994;8.820;2023-02-28T10:15:13;22.30;;;11.03;;
7383;SDS011;3733;47.994;8.820;2023-02-28T10:17:41;19.60;;;12.63;;
7383;SDS011;3733;47.994;8.820;2023-02-28T10:25:37;20.03;;;11.50;;
7383;SDS011;3733;47.994;8.820;2023-02-28T10:27:58;23.53;;;11.93;;
7383;SDS011;3733;47.994;8.820;2023-02-28T10:30:37;19.93;;;11.50;;
7383;SDS011;3733;47.994;8.820;2023-02-28T10:33:15;18.43;;;10.40;;
7383;SDS011;3733;47.994;8.820;2023-02-28T10:35:43;24.67;;;11.97;;
7383;SDS011;3733;47.994;8.820;2023-02-28T10:38:12;20.60;;;11.27;;
7383;SDS011;3733;47.994;8.820;2023-02-28T10:40:44;23.80;;;12.60;;
7383;SDS011;3733;47.994;8.820;2023-02-28T10:45:38;22.20;;;12.43;;
7383;SDS011;3733;47.994;8.820;2023-02-28T10:48:26;18.90;;;11.80;;
7383;SDS011;3733;47.994;8.820;2023-02-28T11:01:15;20.40;;;11.90;;
7383;SDS011;3733;47.994;8.820;2023-02-28T11:03:42;21.97;;;12.60;;
7383;SDS011;3733;47.994;8.820;2023-02-28T11:06:25;19.97;;;11.73;;
7383;SDS011;3733;47.994;8.820;2023-02-28T11:08:57;21.30;;;11.57;;
7383;SDS011;3733;47.994;8.820;2023-02-28T11:11:26;20.80;;;11.70;;
7383;SDS011;3733;47.994;8.820;2023-02-28T11:13:57;19.97;;;11.70;;
7383;SDS011;3733;47.994;8.820;2023-02-28T11:16:31;22.50;;;11.80;;
7383;SDS011;3733;47.994;8.820;2023-02-28T11:19:03;22.53;;;10.93;;
7383;SDS011;3733;47.994;8.820;2023-02-28T11:21:35;18.93;;;11.70;;
7383;SDS011;3733;47.994;8.820;2023-02-28T11:26:38;20.77;;;12.27;;
7383;SDS011;3733;47.994;8.820;2023-02-28T11:29:23;20.93;;;12.03;;
7383;SDS011;3733;47.994;8.820;2023-02-28T11:34:34;24.27;;;12.10;;
7383;SDS011;3733;47.994;8.820;2023-02-28T11:37:01;26.73;;;12.13;;
7383;SDS011;3733;47.994;8.820;2023-02-28T11:39:30;19.87;;;11.67;;
7383;SDS011;3733;47.994;8.820;2023-02-28T11:47:35;21.50;;;11.30;;
7383;SDS011;3733;47.994;8.820;2023-02-28T12:01:27;25.20;;;13.70;;
7383;SDS011;3733;47.994;8.820;2023-02-28T12:06:28;22.67;;;12.70;;
7383;SDS011;3733;47.994;8.820;2023-02-28T12:17:30;19.53;;;12.50;;
7383;SDS011;3733;47.994;8.820;2023-02-28T12:20:15;19.50;;;11.93;;
7383;SDS011;3733;47.994;8.820;2023-02-28T12:27:51;32.03;;;13.43;;
7383;SDS011;3733;47.994;8.820;2023-02-28T12:30:33;19.93;;;12.37;;
7383;SDS011;3733;47.994;8.820;2023-02-28T12:33:09;22.70;;;13.23;;
7383;SDS011;3733;47.994;8.820;2023-02-28T12:35:41;21.03;;;12.37;;
7383;SDS011;3733;47.994;8.820;2023-02-28T12:41:00;24.90;;;13.07;;
7383;SDS011;3733;47.994;8.820;2023-02-28T12:43:48;19.10;;;12.50;;
7383;SDS011;3733;47.994;8.820;2023-02-28T12:46:23;20.90;;;11.97;;
7383;SDS011;3733;47.994;8.820;2023-02-28T12:48:56;23.57;;;12.97;;
7383;SDS011;3733;47.994;8.820;2023-02-28T12:51:24;22.13;;;12.37;;
7383;SDS011;3733;47.994;8.820;2023-02-28T12:53:57;19.80;;;12.70;;
7383;SDS011;3733;47.994;8.820;2023-02-28T12:59:38;20.00;;;13.77;;
7383;SDS011;3733;47.994;8.820;2023-02-28T13:11:00;23.43;;;13.97;;
7383;SDS011;3733;47.994;8.820;2023-02-28T13:13:26;20.80;;;12.77;;
7383;SDS011;3733;47.994;8.820;2023-02-28T13:18:29;19.57;;;12.53;;
7383;SDS011;3733;47.994;8.820;2023-02-28T13:21:05;20.37;;;12.50;;
7383;SDS011;3733;47.994;8.820;2023-02-28T13:23:56;18.57;;;11.93;;
7383;SDS011;3733;47.994;8.820;2023-02-28T13:29:00;23.00;;;14.17;;
7383;SDS011;3733;47.994;8.820;2023-02-28T13:35:34;19.80;;;12.70;;
7383;SDS011;3733;47.994;8.820;2023-02-28T13:39:55;20.37;;;11.73;;
7383;SDS011;3733;47.994;8.820;2023-02-28T13:47:30;20.73;;;12.30;;
7383;SDS011;3733;47.994;8.820;2023-02-28T13:52:48;21.10;;;13.53;;
7383;SDS011;3733;47.994;8.820;2023-02-28T14:01:08;17.90;;;12.77;;
7383;SDS011;3733;47.994;8.820;2023-02-28T14:06:32;21.57;;;13.07;;
7383;SDS011;3733;47.994;8.820;2023-02-28T14:11:32;17.03;;;11.30;;
7383;SDS011;3733;47.994;8.820;2023-02-28T14:13:58;22.13;;;11.70;;
7383;SDS011;3733;47.994;8.820;2023-02-28T14:19:12;19.33;;;12.73;;
7383;SDS011;3733;47.994;8.820;2023-02-28T14:32:58;17.70;;;11.20;;
7383;SDS011;3733;47.994;8.820;2023-02-28T14:38:40;18.00;;;11.97;;
7383;SDS011;3733;47.994;8.820;2023-02-28T14:41:14;20.30;;;12.30;;
7383;SDS011;3733;47.994;8.820;2023-02-28T14:43:50;16.30;;;11.30;;
7383;SDS011;3733;47.994;8.820;2023-02-28T14:46:18;18.60;;;11.70;;
7383;SDS011;3733;47.994;8.820;2023-02-28T14:48:45;21.27;;;12.93;;
7383;SDS011;3733;47.994;8.820;2023-02-28T14:51:17;24.53;;;12.43;;
7383;SDS011;3733;47.994;8.820;2023-02-28T14:53:46;15.20;;;11.33;;
7383;SDS011;3733;47.994;8.820;2023-02-28T14:56:22;18.20;;;12.00;;
7383;SDS011;3733;47.994;8.820;2023-02-28T14:58:52;18.10;;;12.50;;
7383;SDS011;3733;47.994;8.820;2023-02-28T15:01:21;18.77;;;12.10;;
7383;SDS011;3733;47.994;8.820;2023-02-28T15:03:48;20.63;;;12.37;;
7383;SDS011;3733;47.994;8.820;2023-02-28T15:06:24;23.27;;;13.10;;
7383;SDS011;3733;47.994;8.820;2023-02-28T15:09:06;17.40;;;12.40;;
7383;SDS011;3733;47.994;8.820;2023-02-28T15:11:33;20.07;;;12.33;;
7383;SDS011;3733;47.994;8.820;2023-02-28T15:14:00;19.23;;;12.40;;
7383;SDS011;3733;47.994;8.820;2023-02-28T15:16:29;20.50;;;13.43;;
7383;SDS011;3733;47.994;8.820;2023-02-28T15:21:31;20.27;;;13.13;;
7383;SDS011;3733;47.994;8.820;2023-02-28T15:24:00;19.57;;;13.27;;
7383;SDS011;3733;47.994;8.820;2023-02-28T15:26:37;17.63;;;12.80;;
7383;SDS011;3733;47.994;8.820;2023-02-28T15:29:15;20.40;;;11.43;;
7383;SDS011;3733;47.994;8.820;2023-02-28T15:31:46;21.53;;;12.80;;
7383;SDS011;3733;47.994;8.820;2023-02-28T15:34:34;17.50;;;12.60;;
7383;SDS011;3733;47.994;8.820;2023-02-28T15:37:06;18.17;;;13.10;;
7383;SDS011;3733;47.994;8.820;2023-02-28T15:39:50;18.77;;;12.17;;
7383;SDS011;3733;47.994;8.820;2023-02-28T15:42:19;19.80;;;13.50;;
7383;SDS011;3733;47.994;8.820;2023-02-28T15:44:47;19.50;;;14.23;;
7383;SDS011;3733;47.994;8.820;2023-02-28T15:47:23;19.50;;;13.20;;
7383;SDS011;3733;47.994;8.820;2023-02-28T15:50:24;19.43;;;13.60;;
7383;SDS011;3733;47.994;8.820;2023-02-28T15:52:44;19.83;;;13.90;;
7383;SDS011;3733;47.994;8.820;2023-02-28T15:55:18;22.07;;;14.90;;
7383;SDS011;3733;47.994;8.820;2023-02-28T15:57:52;16.50;;;12.73;;
7383;SDS011;3733;47.994;8.820;2023-02-28T16:00:23;16.80;;;12.90;;
7383;SDS011;3733;47.994;8.820;2023-02-28T16:02:50;21.27;;;14.00;;
7383;SDS011;3733;47.994;8.820;2023-02-28T16:07:56;29.83;;;17.40;;
7383;SDS011;3733;47.994;8.820;2023-02-28T16:10:23;27.53;;;16.73;;
7383;SDS011;3733;47.994;8.820;2023-02-28T16:12:52;25.07;;;13.80;;
7383;SDS011;3733;47.994;8.820;2023-02-28T16:15:26;24.47;;;14.80;;
7383;SDS011;3733;47.994;8.820;2023-02-28T16:17:54;22.97;;;15.07;;
7383;SDS011;3733;47.994;8.820;2023-02-28T16:20:22;24.93;;;14.33;;
7383;SDS011;3733;47.994;8.820;2023-02-28T16:22:49;25.60;;;15.10;;
7383;SDS011;3733;47.994;8.820;2023-02-28T16:25:16;22.20;;;15.20;;
7383;SDS011;3733;47.994;8.820;2023-02-28T16:27:44;25.87;;;15.17;;
7383;SDS011;3733;47.994;8.820;2023-02-28T16:30:18;23.10;;;15.00;;
7383;SDS011;3733;47.994;8.820;2023-02-28T16:32:47;27.80;;;15.83;;
7383;SDS011;3733;47.994;8.820;2023-02-28T16:35:14;19.93;;;13.77;;
7383;SDS011;3733;47.994;8.820;2023-02-28T16:37:40;23.60;;;15.07;;
7383;SDS011;3733;47.994;8.820;2023-02-28T16:40:07;25.90;;;14.30;;
7383;SDS011;3733;47.994;8.820;2023-02-28T16:42:45;24.20;;;14.60;;
7383;SDS011;3733;47.994;8.820;2023-02-28T16:45:17;29.63;;;14.87;;
7383;SDS011;3733;47.994;8.820;2023-02-28T16:47:46;26.37;;;13.77;;
7383;SDS011;3733;47.994;8.820;2023-02-28T16:50:15;25.53;;;14.70;;
7383;SDS011;3733;47.994;8.820;2023-02-28T16:52:43;24.30;;;14.60;;
7383;SDS011;3733;47.994;8.820;2023-02-28T16:55:09;22.37;;;14.17;;
7383;SDS011;3733;47.994;8.820;2023-02-28T16:57:35;22.07;;;14.70;;
7383;SDS011;3733;47.994;8.820;2023-02-28T17:00:01;23.27;;;13.47;;
7383;SDS011;3733;47.994;8.820;2023-02-28T17:02:28;22.10;;;14.57;;
7383;SDS011;3733;47.994;8.820;2023-02-28T17:04:53;23.87;;;14.70;;
7383;SDS011;3733;47.994;8.820;2023-02-28T17:07:19;23.27;;;14.07;;
7383;SDS011;3733;47.994;8.820;2023-02-28T17:09:45;23.90;;;13.53;;
7383;SDS011;3733;47.994;8.820;2023-02-28T17:12:10;23.97;;;14.57;;
7383;SDS011;3733;47.994;8.820;2023-02-28T17:14:36;23.77;;;14.73;;
7383;SDS011;3733;47.994;8.820;2023-02-28T17:17:03;23.67;;;13.70;;
7383;SDS011;3733;47.994;8.820;2023-02-28T17:19:29;22.37;;;14.03;;
7383;SDS011;3733;47.994;8.820;2023-02-28T17:21:55;23.17;;;14.67;;
7383;SDS011;3733;47.994;8.820;2023-02-28T17:24:21;23.23;;;14.00;;
7383;SDS011;3733;47.994;8.820;2023-02-28T17:26:46;23.10;;;15.00;;
7383;SDS011;3733;47.994;8.820;2023-02-28T17:29:16;26.20;;;14.50;;
7383;SDS011;3733;47.994;8.820;2023-02-28T17:31:44;25.20;;;14.40;;
7383;SDS011;3733;47.994;8.820;2023-02-28T17:34:10;28.10;;;14.10;;
7383;SDS011;3733;47.994;8.820;2023-02-28T17:36:36;24.90;;;15.30;;
7383;SDS011;3733;47.994;8.820;2023-02-28T17:39:03;30.70;;;15.13;;
7383;SDS011;3733;47.994;8.820;2023-02-28T17:41:33;24.37;;;13.57;;
7383;SDS011;3733;47.994;8.820;2023-02-28T17:43:59;28.13;;;16.00;;
7383;SDS011;3733;47.994;8.820;2023-02-28T17:46:25;24.03;;;15.40;;
7383;SDS011;3733;47.994;8.820;2023-02-28T17:48:53;20.33;;;13.93;;
7383;SDS011;3733;47.994;8.820;2023-02-28T17:51:20;23.43;;;14.23;;
7383;SDS011;3733;47.994;8.820;2023-02-28T17:53:47;25.17;;;13.87;;
7383;SDS011;3733;47.994;8.820;2023-02-28T17:56:16;22.10;;;14.20;;
7383;SDS011;3733;47.994;8.820;2023-02-28T17:58:44;22.03;;;12.83;;
7383;SDS011;3733;47.994;8.820;2023-02-28T18:01:10;26.73;;;15.20;;
7383;SDS011;3733;47.994;8.820;2023-02-28T18:03:36;29.80;;;15.10;;
7383;SDS011;3733;47.994;8.820;2023-02-28T18:06:03;22.37;;;13.97;;
7383;SDS011;3733;47.994;8.820;2023-02-28T18:08:29;27.67;;;14.60;;
7383;SDS011;3733;47.994;8.820;2023-02-28T18:10:55;26.60;;;14.83;;
7383;SDS011;3733;47.994;8.820;2023-02-28T18:13:21;23.97;;;13.27;;